Terminal Aerodrome Forecast
Issued by NWS

Home | Current Version | Previous Version | Text Only | Print | Product List | Glossary On
Versions: 1 2 3 4 5 6 7 8 9 10 11 12 13
000
FTUS43 KDLH 292320
TAFHIB
TAF
KHIB 292320Z 3000/3024 13007KT P6SM OVC200
     FM300600 VRB03KT P6SM SCT150
     FM301000 VRB03KT 5SM BR SCT100
     FM301400 12004KT P6SM SCT090
     FM302000 09008KT P6SM FEW200=

USA.gov is the U.S. government's official web portal to all federal, state and local government web resources and services.